METAR AND TAF INFORMATION
METAR FOR KCXE
ADDS - METARS form results

(1525 UTC 17 February 2019)
Data provider http://aviationweather.gov/metar/data/
 
METAR text: KCXE 171515Z AUTO 00000KT 10SM BKN048 02/M03 A3011 RMK AO1 T00181031
Conditions at: KCXE (CHASE CITY , VA, US) observed 1515 UTC 17 February 2019
Temperature: 1.8°C (35°F)
Dewpoint: -3.1°C (26°F) [RH = 70%]
Pressure (altimeter): 30.11 inches Hg (1019.7 mb)
Winds: calm
Visibility: 10 or more miles (16+ km)
Ceiling: 4800 feet AGL
Clouds: broken clouds at 4800 feet AGL
Weather: automated observation with no human augmentation;
there may or may not be significant weather present at this time

METAR text: KCXE 171455Z AUTO 00000KT 10SM SCT048 02/M03 A3010 RMK AO1 T00181030
Conditions at: KCXE (CHASE CITY , VA, US) observed 1455 UTC 17 February 2019
Temperature: 1.8°C (35°F)
Dewpoint: -3.0°C (27°F) [RH = 70%]
Pressure (altimeter): 30.10 inches Hg (1019.4 mb)
Winds: calm
Visibility: 10 or more miles (16+ km)
Ceiling: at least 12,000 feet AGL
Clouds: scattered clouds at 4800 feet AGL
Weather: automated observation with no human augmentation;
there may or may not be significant weather present at this time

METAR text: KCXE 171435Z AUTO 06006KT 10SM BKN048 02/M03 A3008 RMK AO1 T00151034
Conditions at: KCXE (CHASE CITY , VA, US) observed 1435 UTC 17 February 2019
Temperature: 1.5°C (35°F)
Dewpoint: -3.4°C (26°F) [RH = 70%]
Pressure (altimeter): 30.08 inches Hg (1018.7 mb)
Winds: from the ENE (60 degrees) at 7 MPH (6 knots; 3.1 m/s)
Visibility: 10 or more miles (16+ km)
Ceiling: 4800 feet AGL
Clouds: broken clouds at 4800 feet AGL
Weather: automated observation with no human augmentation;
there may or may not be significant weather present at this time

 AIRPORT MAP

Esri Leaflet Quickstart
 RUNWAY INFORMATION
Runway 18 Runway length 3400 ft Runway width 50 ft
Runway elevation 503 ft Runway displaced threshold 0 ft Runway heading 175
Runway 36 Runway length 3400 ft Runway width 50 ft
Runway elevation 486 ft Runway displaced threshold 0 ft Runway heading 355

 AIRPORT FREQUENCIES
Type CNTR Name WASHINGTON Frequency 118.75 MHZ
Type CTAF Name CTAF Frequency 122.9 MHZ

 AIRPORT NEAR NAVIGATION AIDS



Powered by Virtual Airlines Manager [v2.6.2]